Hauula, Hawaii
Current Conditions -  °F | °C
As of 11:58 AM on Friday 28 Nov 2014 (Local Time) from PHHI Reporting Station
Few Clouds Few Clouds  
Wind Chill: 75°   Ceiling: Unl
Heat Index: 75°   Visibility: 10mi
Dew Point: 64°   Wind: 20mph
Humidity: 68%   Direction: 50°NE
Pressure: 30.06"   Gusts: 22mph
Location:  21.6°N, 157.9°W
Report Text: PHHI 282158Z AUTO 05017G19KT 10SM FEW060 24/18 A3006 RMK AO2 SLP170 T02410179 $
Loading
Personal Weather Stations






























Interactive Weather Map New forecast layout! Learn more

10-Day Weather Forecast

Advertisements
Track Severe Weather on mobile